sensor_id;sensor_type;location;lat;lon;timestamp;P1;durP1;ratioP1;P2;durP2;ratioP2
50267;SDS011;36153;50.960;6.220;2023-04-19T00:01:54;15.32;;;10.13;;
50267;SDS011;36153;50.960;6.220;2023-04-19T00:04:55;16.23;;;10.23;;
50267;SDS011;36153;50.960;6.220;2023-04-19T00:07:55;15.65;;;9.85;;
50267;SDS011;36153;50.960;6.220;2023-04-19T00:10:55;16.48;;;9.95;;
50267;SDS011;36153;50.960;6.220;2023-04-19T00:13:56;15.88;;;10.50;;
50267;SDS011;36153;50.960;6.220;2023-04-19T00:16:56;17.73;;;9.93;;
50267;SDS011;36153;50.960;6.220;2023-04-19T00:19:57;16.85;;;10.35;;
50267;SDS011;36153;50.960;6.220;2023-04-19T00:22:57;15.98;;;10.88;;
50267;SDS011;36153;50.960;6.220;2023-04-19T00:25:58;16.75;;;10.07;;
50267;SDS011;36153;50.960;6.220;2023-04-19T00:29:01;16.88;;;11.30;;
50267;SDS011;36153;50.960;6.220;2023-04-19T00:32:01;16.02;;;10.18;;
50267;SDS011;36153;50.960;6.220;2023-04-19T00:35:04;18.60;;;11.13;;
50267;SDS011;36153;50.960;6.220;2023-04-19T00:38:05;16.58;;;10.85;;
50267;SDS011;36153;50.960;6.220;2023-04-19T00:41:05;17.90;;;10.95;;
50267;SDS011;36153;50.960;6.220;2023-04-19T00:44:06;14.55;;;9.38;;
50267;SDS011;36153;50.960;6.220;2023-04-19T00:47:06;17.50;;;10.57;;
50267;SDS011;36153;50.960;6.220;2023-04-19T00:50:07;14.07;;;10.13;;
50267;SDS011;36153;50.960;6.220;2023-04-19T00:53:08;19.20;;;11.45;;
50267;SDS011;36153;50.960;6.220;2023-04-19T00:56:09;16.98;;;10.70;;
50267;SDS011;36153;50.960;6.220;2023-04-19T00:59:10;16.20;;;9.38;;
50267;SDS011;36153;50.960;6.220;2023-04-19T01:02:13;18.92;;;10.63;;
50267;SDS011;36153;50.960;6.220;2023-04-19T01:05:13;17.50;;;10.82;;
50267;SDS011;36153;50.960;6.220;2023-04-19T01:08:14;16.55;;;10.38;;
50267;SDS011;36153;50.960;6.220;2023-04-19T01:11:14;20.25;;;11.40;;
50267;SDS011;36153;50.960;6.220;2023-04-19T01:14:15;16.60;;;11.02;;
50267;SDS011;36153;50.960;6.220;2023-04-19T01:17:15;20.40;;;10.70;;
50267;SDS011;36153;50.960;6.220;2023-04-19T01:20:17;16.58;;;10.55;;
50267;SDS011;36153;50.960;6.220;2023-04-19T01:23:18;17.75;;;10.65;;
50267;SDS011;36153;50.960;6.220;2023-04-19T01:26:19;17.85;;;11.45;;
50267;SDS011;36153;50.960;6.220;2023-04-19T01:29:21;17.80;;;10.02;;
50267;SDS011;36153;50.960;6.220;2023-04-19T01:32:21;18.30;;;11.48;;
50267;SDS011;36153;50.960;6.220;2023-04-19T01:35:22;18.23;;;10.90;;
50267;SDS011;36153;50.960;6.220;2023-04-19T01:38:22;18.30;;;11.88;;
50267;SDS011;36153;50.960;6.220;2023-04-19T01:41:22;17.13;;;9.80;;
50267;SDS011;36153;50.960;6.220;2023-04-19T01:44:25;16.27;;;10.82;;
50267;SDS011;36153;50.960;6.220;2023-04-19T01:47:26;18.55;;;10.73;;
50267;SDS011;36153;50.960;6.220;2023-04-19T01:50:26;16.25;;;9.73;;
50267;SDS011;36153;50.960;6.220;2023-04-19T01:53:27;18.88;;;11.70;;
50267;SDS011;36153;50.960;6.220;2023-04-19T01:56:27;18.90;;;11.45;;
50267;SDS011;36153;50.960;6.220;2023-04-19T01:59:27;17.58;;;10.73;;
50267;SDS011;36153;50.960;6.220;2023-04-19T02:02:28;17.80;;;10.43;;
50267;SDS011;36153;50.960;6.220;2023-04-19T02:05:28;17.88;;;11.00;;
50267;SDS011;36153;50.960;6.220;2023-04-19T02:08:28;16.83;;;10.65;;
50267;SDS011;36153;50.960;6.220;2023-04-19T02:11:29;21.55;;;11.85;;
50267;SDS011;36153;50.960;6.220;2023-04-19T02:14:29;18.55;;;9.93;;
50267;SDS011;36153;50.960;6.220;2023-04-19T02:17:30;18.08;;;10.82;;
50267;SDS011;36153;50.960;6.220;2023-04-19T02:20:31;18.33;;;10.93;;
50267;SDS011;36153;50.960;6.220;2023-04-19T02:23:31;17.35;;;10.85;;
50267;SDS011;36153;50.960;6.220;2023-04-19T02:26:32;16.35;;;10.43;;
50267;SDS011;36153;50.960;6.220;2023-04-19T02:29:32;17.83;;;11.30;;
50267;SDS011;36153;50.960;6.220;2023-04-19T02:32:32;18.20;;;11.20;;
50267;SDS011;36153;50.960;6.220;2023-04-19T02:35:33;16.48;;;9.90;;
50267;SDS011;36153;50.960;6.220;2023-04-19T02:38:33;18.55;;;10.73;;
50267;SDS011;36153;50.960;6.220;2023-04-19T02:41:34;17.80;;;10.35;;
50267;SDS011;36153;50.960;6.220;2023-04-19T02:44:34;16.38;;;10.32;;
50267;SDS011;36153;50.960;6.220;2023-04-19T02:47:34;20.15;;;10.77;;
50267;SDS011;36153;50.960;6.220;2023-04-19T02:50:35;18.00;;;10.07;;
50267;SDS011;36153;50.960;6.220;2023-04-19T02:53:37;17.48;;;10.60;;
50267;SDS011;36153;50.960;6.220;2023-04-19T02:56:37;19.80;;;10.70;;
50267;SDS011;36153;50.960;6.220;2023-04-19T02:59:38;16.75;;;10.80;;
50267;SDS011;36153;50.960;6.220;2023-04-19T03:02:38;16.40;;;10.30;;
50267;SDS011;36153;50.960;6.220;2023-04-19T03:05:40;17.75;;;10.23;;
50267;SDS011;36153;50.960;6.220;2023-04-19T03:08:40;19.48;;;11.82;;
50267;SDS011;36153;50.960;6.220;2023-04-19T03:11:40;17.80;;;10.35;;
50267;SDS011;36153;50.960;6.220;2023-04-19T03:14:41;19.52;;;11.25;;
50267;SDS011;36153;50.960;6.220;2023-04-19T03:17:41;18.20;;;10.88;;
50267;SDS011;36153;50.960;6.220;2023-04-19T03:20:41;21.80;;;11.85;;
50267;SDS011;36153;50.960;6.220;2023-04-19T03:23:42;18.73;;;10.95;;
50267;SDS011;36153;50.960;6.220;2023-04-19T03:26:42;21.45;;;12.18;;
50267;SDS011;36153;50.960;6.220;2023-04-19T03:29:43;17.30;;;10.20;;
50267;SDS011;36153;50.960;6.220;2023-04-19T03:32:43;19.10;;;11.30;;
50267;SDS011;36153;50.960;6.220;2023-04-19T03:35:43;19.65;;;11.48;;
50267;SDS011;36153;50.960;6.220;2023-04-19T03:38:44;15.85;;;9.77;;
50267;SDS011;36153;50.960;6.220;2023-04-19T03:41:45;19.30;;;11.27;;
50267;SDS011;36153;50.960;6.220;2023-04-19T03:44:45;18.25;;;11.18;;
50267;SDS011;36153;50.960;6.220;2023-04-19T03:47:45;18.23;;;10.70;;
50267;SDS011;36153;50.960;6.220;2023-04-19T03:50:46;16.65;;;10.82;;
50267;SDS011;36153;50.960;6.220;2023-04-19T03:53:46;20.73;;;11.30;;
50267;SDS011;36153;50.960;6.220;2023-04-19T03:56:46;18.75;;;11.15;;
50267;SDS011;36153;50.960;6.220;2023-04-19T03:59:47;20.77;;;11.27;;
50267;SDS011;36153;50.960;6.220;2023-04-19T04:02:47;15.25;;;9.10;;
50267;SDS011;36153;50.960;6.220;2023-04-19T04:05:47;20.35;;;13.25;;
50267;SDS011;36153;50.960;6.220;2023-04-19T04:08:48;29.25;;;15.20;;
50267;SDS011;36153;50.960;6.220;2023-04-19T04:11:48;26.05;;;13.80;;
50267;SDS011;36153;50.960;6.220;2023-04-19T04:14:49;20.80;;;12.27;;
50267;SDS011;36153;50.960;6.220;2023-04-19T04:17:49;19.90;;;11.50;;
50267;SDS011;36153;50.960;6.220;2023-04-19T04:20:50;17.98;;;10.15;;
50267;SDS011;36153;50.960;6.220;2023-04-19T04:23:50;18.58;;;11.52;;
50267;SDS011;36153;50.960;6.220;2023-04-19T04:26:52;18.73;;;11.40;;
50267;SDS011;36153;50.960;6.220;2023-04-19T04:29:52;17.65;;;11.02;;
50267;SDS011;36153;50.960;6.220;2023-04-19T04:32:53;21.38;;;11.52;;
50267;SDS011;36153;50.960;6.220;2023-04-19T04:35:56;17.25;;;11.65;;
50267;SDS011;36153;50.960;6.220;2023-04-19T04:38:58;21.98;;;12.40;;
50267;SDS011;36153;50.960;6.220;2023-04-19T04:42:00;15.45;;;10.98;;
50267;SDS011;36153;50.960;6.220;2023-04-19T04:45:01;17.02;;;11.15;;
50267;SDS011;36153;50.960;6.220;2023-04-19T04:48:02;21.02;;;11.73;;
50267;SDS011;36153;50.960;6.220;2023-04-19T04:51:02;18.58;;;12.02;;
50267;SDS011;36153;50.960;6.220;2023-04-19T04:54:03;15.98;;;10.25;;
50267;SDS011;36153;50.960;6.220;2023-04-19T04:57:04;15.38;;;10.65;;
50267;SDS011;36153;50.960;6.220;2023-04-19T05:00:05;17.48;;;10.95;;
50267;SDS011;36153;50.960;6.220;2023-04-19T05:03:05;17.42;;;11.63;;
50267;SDS011;36153;50.960;6.220;2023-04-19T05:06:06;22.17;;;11.57;;
50267;SDS011;36153;50.960;6.220;2023-04-19T05:09:06;18.05;;;11.00;;
50267;SDS011;36153;50.960;6.220;2023-04-19T05:12:07;19.45;;;11.20;;
50267;SDS011;36153;50.960;6.220;2023-04-19T05:15:07;14.27;;;10.45;;
50267;SDS011;36153;50.960;6.220;2023-04-19T05:18:08;18.30;;;11.05;;
50267;SDS011;36153;50.960;6.220;2023-04-19T05:21:08;17.65;;;10.48;;
50267;SDS011;36153;50.960;6.220;2023-04-19T05:24:09;16.85;;;10.48;;
50267;SDS011;36153;50.960;6.220;2023-04-19T05:27:09;15.55;;;10.15;;
50267;SDS011;36153;50.960;6.220;2023-04-19T05:30:10;16.42;;;9.50;;
50267;SDS011;36153;50.960;6.220;2023-04-19T05:33:10;15.48;;;10.18;;
50267;SDS011;36153;50.960;6.220;2023-04-19T05:36:11;18.52;;;10.00;;
50267;SDS011;36153;50.960;6.220;2023-04-19T05:39:11;19.73;;;10.82;;
50267;SDS011;36153;50.960;6.220;2023-04-19T05:42:12;15.07;;;9.20;;
50267;SDS011;36153;50.960;6.220;2023-04-19T05:45:12;17.52;;;10.05;;
50267;SDS011;36153;50.960;6.220;2023-04-19T05:48:14;16.00;;;9.75;;
50267;SDS011;36153;50.960;6.220;2023-04-19T05:51:15;15.57;;;9.45;;
50267;SDS011;36153;50.960;6.220;2023-04-19T05:54:17;14.38;;;9.63;;
50267;SDS011;36153;50.960;6.220;2023-04-19T05:57:18;13.07;;;9.85;;
50267;SDS011;36153;50.960;6.220;2023-04-19T06:00:18;14.85;;;9.82;;
50267;SDS011;36153;50.960;6.220;2023-04-19T06:03:19;15.48;;;9.35;;
50267;SDS011;36153;50.960;6.220;2023-04-19T06:06:22;17.90;;;8.95;;
50267;SDS011;36153;50.960;6.220;2023-04-19T06:09:23;15.15;;;9.18;;
50267;SDS011;36153;50.960;6.220;2023-04-19T06:12:23;15.27;;;9.40;;
50267;SDS011;36153;50.960;6.220;2023-04-19T06:15:24;18.25;;;9.52;;
50267;SDS011;36153;50.960;6.220;2023-04-19T06:18:25;15.63;;;8.93;;
50267;SDS011;36153;50.960;6.220;2023-04-19T06:21:25;14.32;;;8.30;;
50267;SDS011;36153;50.960;6.220;2023-04-19T06:24:26;12.50;;;8.45;;
50267;SDS011;36153;50.960;6.220;2023-04-19T06:27:26;14.30;;;8.00;;
50267;SDS011;36153;50.960;6.220;2023-04-19T06:30:26;12.90;;;7.85;;
50267;SDS011;36153;50.960;6.220;2023-04-19T06:33:27;12.15;;;7.43;;
50267;SDS011;36153;50.960;6.220;2023-04-19T06:36:27;10.50;;;7.57;;
50267;SDS011;36153;50.960;6.220;2023-04-19T06:39:28;9.88;;;6.28;;
50267;SDS011;36153;50.960;6.220;2023-04-19T06:42:28;10.82;;;6.13;;
50267;SDS011;36153;50.960;6.220;2023-04-19T06:45:28;8.40;;;5.35;;
50267;SDS011;36153;50.960;6.220;2023-04-19T06:48:29;9.88;;;5.60;;
50267;SDS011;36153;50.960;6.220;2023-04-19T06:51:29;8.30;;;5.15;;
50267;SDS011;36153;50.960;6.220;2023-04-19T06:54:30;9.45;;;5.65;;
50267;SDS011;36153;50.960;6.220;2023-04-19T06:57:30;10.10;;;5.28;;
50267;SDS011;36153;50.960;6.220;2023-04-19T07:00:31;10.32;;;5.70;;
50267;SDS011;36153;50.960;6.220;2023-04-19T07:03:31;8.02;;;5.00;;
50267;SDS011;36153;50.960;6.220;2023-04-19T07:06:32;6.72;;;4.25;;
50267;SDS011;36153;50.960;6.220;2023-04-19T07:09:33;6.95;;;4.45;;
50267;SDS011;36153;50.960;6.220;2023-04-19T07:12:33;7.43;;;4.18;;
50267;SDS011;36153;50.960;6.220;2023-04-19T07:15:34;6.68;;;4.57;;
50267;SDS011;36153;50.960;6.220;2023-04-19T07:18:34;6.97;;;4.70;;
50267;SDS011;36153;50.960;6.220;2023-04-19T07:21:34;10.27;;;4.70;;
50267;SDS011;36153;50.960;6.220;2023-04-19T07:24:35;10.45;;;5.63;;
50267;SDS011;36153;50.960;6.220;2023-04-19T07:27:35;6.80;;;4.93;;
50267;SDS011;36153;50.960;6.220;2023-04-19T07:30:35;9.55;;;4.90;;
50267;SDS011;36153;50.960;6.220;2023-04-19T07:33:36;7.82;;;4.78;;
50267;SDS011;36153;50.960;6.220;2023-04-19T07:36:36;7.22;;;4.82;;
50267;SDS011;36153;50.960;6.220;2023-04-19T07:39:38;6.85;;;4.25;;
50267;SDS011;36153;50.960;6.220;2023-04-19T07:42:38;7.20;;;4.80;;
50267;SDS011;36153;50.960;6.220;2023-04-19T07:45:38;7.85;;;4.80;;
50267;SDS011;36153;50.960;6.220;2023-04-19T07:48:39;6.18;;;4.50;;
50267;SDS011;36153;50.960;6.220;2023-04-19T07:51:40;8.68;;;4.47;;
50267;SDS011;36153;50.960;6.220;2023-04-19T07:54:40;8.43;;;5.20;;
50267;SDS011;36153;50.960;6.220;2023-04-19T07:57:40;7.40;;;5.03;;
50267;SDS011;36153;50.960;6.220;2023-04-19T08:00:45;6.57;;;4.57;;
50267;SDS011;36153;50.960;6.220;2023-04-19T08:03:45;7.93;;;5.15;;
50267;SDS011;36153;50.960;6.220;2023-04-19T08:06:46;8.90;;;5.00;;
50267;SDS011;36153;50.960;6.220;2023-04-19T08:09:46;7.90;;;4.95;;
50267;SDS011;36153;50.960;6.220;2023-04-19T08:12:46;8.43;;;5.20;;
50267;SDS011;36153;50.960;6.220;2023-04-19T08:15:47;7.25;;;5.78;;
50267;SDS011;36153;50.960;6.220;2023-04-19T08:18:47;8.05;;;5.00;;
50267;SDS011;36153;50.960;6.220;2023-04-19T08:21:50;7.68;;;4.88;;
50267;SDS011;36153;50.960;6.220;2023-04-19T08:24:51;8.70;;;5.85;;
50267;SDS011;36153;50.960;6.220;2023-04-19T08:27:51;8.02;;;5.63;;
50267;SDS011;36153;50.960;6.220;2023-04-19T08:30:53;9.63;;;5.93;;
50267;SDS011;36153;50.960;6.220;2023-04-19T08:33:53;7.78;;;5.45;;
50267;SDS011;36153;50.960;6.220;2023-04-19T08:36:53;6.10;;;4.90;;
50267;SDS011;36153;50.960;6.220;2023-04-19T08:39:54;8.73;;;4.90;;
50267;SDS011;36153;50.960;6.220;2023-04-19T08:42:55;9.70;;;5.07;;
50267;SDS011;36153;50.960;6.220;2023-04-19T08:45:56;10.88;;;5.72;;
50267;SDS011;36153;50.960;6.220;2023-04-19T08:48:57;10.73;;;5.88;;
50267;SDS011;36153;50.960;6.220;2023-04-19T08:51:58;10.32;;;5.85;;
50267;SDS011;36153;50.960;6.220;2023-04-19T08:55:03;8.23;;;4.97;;
50267;SDS011;36153;50.960;6.220;2023-04-19T08:58:05;7.53;;;5.78;;
50267;SDS011;36153;50.960;6.220;2023-04-19T09:01:06;8.85;;;5.63;;
50267;SDS011;36153;50.960;6.220;2023-04-19T09:04:07;8.38;;;6.18;;
50267;SDS011;36153;50.960;6.220;2023-04-19T09:07:08;8.68;;;6.03;;
50267;SDS011;36153;50.960;6.220;2023-04-19T09:10:12;9.15;;;5.88;;
50267;SDS011;36153;50.960;6.220;2023-04-19T09:13:14;8.15;;;5.78;;
50267;SDS011;36153;50.960;6.220;2023-04-19T09:16:23;7.75;;;5.90;;
50267;SDS011;36153;50.960;6.220;2023-04-19T09:19:24;11.05;;;6.10;;
50267;SDS011;36153;50.960;6.220;2023-04-19T09:22:25;9.70;;;5.60;;
50267;SDS011;36153;50.960;6.220;2023-04-19T09:25:25;11.45;;;6.32;;
50267;SDS011;36153;50.960;6.220;2023-04-19T09:28:29;7.97;;;5.07;;
50267;SDS011;36153;50.960;6.220;2023-04-19T09:31:32;10.40;;;5.68;;
50267;SDS011;36153;50.960;6.220;2023-04-19T09:34:36;6.80;;;5.00;;
50267;SDS011;36153;50.960;6.220;2023-04-19T09:38:00;7.78;;;5.40;;
50267;SDS011;36153;50.960;6.220;2023-04-19T09:41:07;10.20;;;5.93;;
50267;SDS011;36153;50.960;6.220;2023-04-19T09:44:08;9.20;;;5.93;;
50267;SDS011;36153;50.960;6.220;2023-04-19T09:47:26;7.22;;;4.90;;
50267;SDS011;36153;50.960;6.220;2023-04-19T09:50:29;6.10;;;4.32;;
50267;SDS011;36153;50.960;6.220;2023-04-19T09:53:29;7.95;;;4.88;;
50267;SDS011;36153;50.960;6.220;2023-04-19T09:56:34;7.07;;;4.25;;
50267;SDS011;36153;50.960;6.220;2023-04-19T09:59:35;5.90;;;4.18;;
50267;SDS011;36153;50.960;6.220;2023-04-19T10:02:36;10.40;;;3.92;;
50267;SDS011;36153;50.960;6.220;2023-04-19T10:05:37;4.90;;;3.53;;
50267;SDS011;36153;50.960;6.220;2023-04-19T10:08:41;8.40;;;3.45;;
50267;SDS011;36153;50.960;6.220;2023-04-19T10:11:53;9.73;;;4.07;;
50267;SDS011;36153;50.960;6.220;2023-04-19T10:14:54;9.25;;;5.05;;
50267;SDS011;36153;50.960;6.220;2023-04-19T10:17:56;7.47;;;3.80;;
50267;SDS011;36153;50.960;6.220;2023-04-19T10:21:00;7.00;;;3.95;;
50267;SDS011;36153;50.960;6.220;2023-04-19T10:24:05;8.52;;;3.90;;
50267;SDS011;36153;50.960;6.220;2023-04-19T10:30:21;4.63;;;3.47;;
50267;SDS011;36153;50.960;6.220;2023-04-19T10:33:27;5.10;;;3.83;;
50267;SDS011;36153;50.960;6.220;2023-04-19T10:36:30;4.63;;;3.10;;
50267;SDS011;36153;50.960;6.220;2023-04-19T10:39:41;4.47;;;3.50;;
50267;SDS011;36153;50.960;6.220;2023-04-19T10:46:16;6.90;;;3.40;;
50267;SDS011;36153;50.960;6.220;2023-04-19T10:49:54;8.65;;;3.80;;
50267;SDS011;36153;50.960;6.220;2023-04-19T10:52:54;6.13;;;3.17;;
50267;SDS011;36153;50.960;6.220;2023-04-19T10:55:55;5.63;;;3.13;;
50267;SDS011;36153;50.960;6.220;2023-04-19T11:02:00;6.13;;;3.13;;
50267;SDS011;36153;50.960;6.220;2023-04-19T11:05:02;4.90;;;3.88;;
50267;SDS011;36153;50.960;6.220;2023-04-19T11:08:03;4.60;;;3.58;;
50267;SDS011;36153;50.960;6.220;2023-04-19T11:11:03;5.00;;;3.33;;
50267;SDS011;36153;50.960;6.220;2023-04-19T11:14:04;6.82;;;3.15;;
50267;SDS011;36153;50.960;6.220;2023-04-19T11:17:14;7.55;;;3.38;;
50267;SDS011;36153;50.960;6.220;2023-04-19T11:20:26;6.40;;;3.13;;
50267;SDS011;36153;50.960;6.220;2023-04-19T11:23:26;4.57;;;2.92;;
50267;SDS011;36153;50.960;6.220;2023-04-19T11:26:27;5.93;;;2.58;;
50267;SDS011;36153;50.960;6.220;2023-04-19T11:29:30;5.30;;;2.80;;
50267;SDS011;36153;50.960;6.220;2023-04-19T11:32:30;8.20;;;2.75;;
50267;SDS011;36153;50.960;6.220;2023-04-19T11:35:31;6.25;;;2.58;;
50267;SDS011;36153;50.960;6.220;2023-04-19T11:38:31;3.75;;;2.15;;
50267;SDS011;36153;50.960;6.220;2023-04-19T11:41:38;4.63;;;2.45;;
50267;SDS011;36153;50.960;6.220;2023-04-19T11:44:39;8.63;;;3.20;;
50267;SDS011;36153;50.960;6.220;2023-04-19T11:47:46;10.95;;;2.70;;
50267;SDS011;36153;50.960;6.220;2023-04-19T11:50:47;5.38;;;2.50;;
50267;SDS011;36153;50.960;6.220;2023-04-19T11:53:49;3.60;;;2.15;;
50267;SDS011;36153;50.960;6.220;2023-04-19T11:56:56;4.45;;;1.98;;
50267;SDS011;36153;50.960;6.220;2023-04-19T12:00:04;2.75;;;1.63;;
50267;SDS011;36153;50.960;6.220;2023-04-19T12:03:11;3.58;;;2.00;;
50267;SDS011;36153;50.960;6.220;2023-04-19T12:06:13;7.30;;;3.42;;
50267;SDS011;36153;50.960;6.220;2023-04-19T12:09:19;4.88;;;1.88;;
50267;SDS011;36153;50.960;6.220;2023-04-19T12:12:32;3.85;;;1.70;;
50267;SDS011;36153;50.960;6.220;2023-04-19T12:15:42;3.63;;;2.00;;
50267;SDS011;36153;50.960;6.220;2023-04-19T12:21:49;5.68;;;3.17;;
50267;SDS011;36153;50.960;6.220;2023-04-19T12:24:52;3.40;;;2.22;;
50267;SDS011;36153;50.960;6.220;2023-04-19T12:27:54;4.70;;;1.75;;
50267;SDS011;36153;50.960;6.220;2023-04-19T12:30:54;3.05;;;2.08;;
50267;SDS011;36153;50.960;6.220;2023-04-19T12:33:54;4.90;;;2.60;;
50267;SDS011;36153;50.960;6.220;2023-04-19T12:36:55;4.07;;;1.70;;
50267;SDS011;36153;50.960;6.220;2023-04-19T12:39:55;3.80;;;2.63;;
50267;SDS011;36153;50.960;6.220;2023-04-19T12:42:56;3.58;;;2.45;;
50267;SDS011;36153;50.960;6.220;2023-04-19T12:45:56;6.93;;;2.15;;
50267;SDS011;36153;50.960;6.220;2023-04-19T12:48:57;5.10;;;2.30;;
50267;SDS011;36153;50.960;6.220;2023-04-19T12:51:58;4.13;;;2.05;;
50267;SDS011;36153;50.960;6.220;2023-04-19T12:54:58;3.65;;;1.95;;
50267;SDS011;36153;50.960;6.220;2023-04-19T12:57:58;3.97;;;2.58;;
50267;SDS011;36153;50.960;6.220;2023-04-19T13:00:59;5.03;;;2.40;;
50267;SDS011;36153;50.960;6.220;2023-04-19T13:03:59;8.02;;;2.53;;
50267;SDS011;36153;50.960;6.220;2023-04-19T13:06:59;4.32;;;2.47;;
50267;SDS011;36153;50.960;6.220;2023-04-19T13:10:00;4.32;;;2.47;;
50267;SDS011;36153;50.960;6.220;2023-04-19T13:13:00;4.70;;;1.95;;
50267;SDS011;36153;50.960;6.220;2023-04-19T13:16:00;4.00;;;1.92;;
50267;SDS011;36153;50.960;6.220;2023-04-19T13:19:01;6.20;;;2.40;;
50267;SDS011;36153;50.960;6.220;2023-04-19T13:22:01;4.07;;;2.55;;
50267;SDS011;36153;50.960;6.220;2023-04-19T13:25:02;4.45;;;2.33;;
50267;SDS011;36153;50.960;6.220;2023-04-19T13:28:03;2.90;;;2.33;;
50267;SDS011;36153;50.960;6.220;2023-04-19T13:31:06;6.05;;;2.45;;
50267;SDS011;36153;50.960;6.220;2023-04-19T13:34:07;4.88;;;2.75;;
50267;SDS011;36153;50.960;6.220;2023-04-19T13:37:07;3.17;;;2.08;;
50267;SDS011;36153;50.960;6.220;2023-04-19T13:40:08;4.75;;;2.40;;
50267;SDS011;36153;50.960;6.220;2023-04-19T13:43:09;9.25;;;2.40;;
50267;SDS011;36153;50.960;6.220;2023-04-19T13:46:09;3.20;;;2.38;;
50267;SDS011;36153;50.960;6.220;2023-04-19T13:49:10;6.47;;;2.80;;
50267;SDS011;36153;50.960;6.220;2023-04-19T13:52:10;5.82;;;2.53;;
50267;SDS011;36153;50.960;6.220;2023-04-19T13:55:10;4.78;;;2.47;;
50267;SDS011;36153;50.960;6.220;2023-04-19T13:58:11;3.15;;;2.60;;
50267;SDS011;36153;50.960;6.220;2023-04-19T14:01:11;7.50;;;3.17;;
50267;SDS011;36153;50.960;6.220;2023-04-19T14:04:12;5.18;;;2.92;;
50267;SDS011;36153;50.960;6.220;2023-04-19T14:07:12;4.50;;;2.40;;
50267;SDS011;36153;50.960;6.220;2023-04-19T14:10:13;6.03;;;3.63;;
50267;SDS011;36153;50.960;6.220;2023-04-19T14:13:13;7.38;;;2.72;;
50267;SDS011;36153;50.960;6.220;2023-04-19T14:16:14;4.85;;;2.70;;
50267;SDS011;36153;50.960;6.220;2023-04-19T14:19:14;4.38;;;3.20;;
50267;SDS011;36153;50.960;6.220;2023-04-19T14:22:15;5.40;;;3.05;;
50267;SDS011;36153;50.960;6.220;2023-04-19T14:25:15;5.38;;;3.22;;
50267;SDS011;36153;50.960;6.220;2023-04-19T14:28:17;5.30;;;3.83;;
50267;SDS011;36153;50.960;6.220;2023-04-19T14:31:18;8.20;;;3.72;;
50267;SDS011;36153;50.960;6.220;2023-04-19T14:34:18;6.72;;;3.88;;
50267;SDS011;36153;50.960;6.220;2023-04-19T14:37:20;5.10;;;3.25;;
50267;SDS011;36153;50.960;6.220;2023-04-19T14:40:20;4.85;;;3.28;;
50267;SDS011;36153;50.960;6.220;2023-04-19T14:43:21;4.28;;;3.58;;
50267;SDS011;36153;50.960;6.220;2023-04-19T14:46:22;5.20;;;3.97;;
50267;SDS011;36153;50.960;6.220;2023-04-19T14:49:22;5.45;;;3.65;;
50267;SDS011;36153;50.960;6.220;2023-04-19T14:52:22;5.05;;;3.20;;
50267;SDS011;36153;50.960;6.220;2023-04-19T14:55:23;5.38;;;4.03;;
50267;SDS011;36153;50.960;6.220;2023-04-19T14:58:25;7.57;;;4.00;;
50267;SDS011;36153;50.960;6.220;2023-04-19T15:01:26;7.90;;;3.83;;
50267;SDS011;36153;50.960;6.220;2023-04-19T15:04:26;5.20;;;4.10;;
50267;SDS011;36153;50.960;6.220;2023-04-19T15:07:26;11.32;;;4.22;;
50267;SDS011;36153;50.960;6.220;2023-04-19T15:10:27;9.13;;;4.35;;
50267;SDS011;36153;50.960;6.220;2023-04-19T15:13:27;6.07;;;3.85;;
50267;SDS011;36153;50.960;6.220;2023-04-19T15:16:28;8.10;;;4.07;;
50267;SDS011;36153;50.960;6.220;2023-04-19T15:19:29;5.93;;;4.00;;
50267;SDS011;36153;50.960;6.220;2023-04-19T15:22:31;6.03;;;3.90;;
50267;SDS011;36153;50.960;6.220;2023-04-19T15:25:33;5.40;;;4.10;;
50267;SDS011;36153;50.960;6.220;2023-04-19T15:28:34;8.98;;;4.25;;
50267;SDS011;36153;50.960;6.220;2023-04-19T15:31:35;7.10;;;4.15;;
50267;SDS011;36153;50.960;6.220;2023-04-19T15:34:35;9.43;;;3.88;;
50267;SDS011;36153;50.960;6.220;2023-04-19T15:37:35;7.40;;;4.45;;
50267;SDS011;36153;50.960;6.220;2023-04-19T15:40:37;3.97;;;3.38;;
50267;SDS011;36153;50.960;6.220;2023-04-19T15:43:37;8.32;;;4.53;;
50267;SDS011;36153;50.960;6.220;2023-04-19T15:46:38;7.53;;;4.53;;
50267;SDS011;36153;50.960;6.220;2023-04-19T15:49:38;5.47;;;3.83;;
50267;SDS011;36153;50.960;6.220;2023-04-19T15:52:39;5.97;;;3.72;;
50267;SDS011;36153;50.960;6.220;2023-04-19T15:55:40;5.70;;;4.03;;
50267;SDS011;36153;50.960;6.220;2023-04-19T15:58:40;6.32;;;3.95;;
50267;SDS011;36153;50.960;6.220;2023-04-19T16:01:41;7.93;;;3.50;;
50267;SDS011;36153;50.960;6.220;2023-04-19T16:04:41;4.28;;;3.28;;
50267;SDS011;36153;50.960;6.220;2023-04-19T16:10:48;7.13;;;3.67;;
50267;SDS011;36153;50.960;6.220;2023-04-19T16:13:49;5.47;;;3.53;;
50267;SDS011;36153;50.960;6.220;2023-04-19T16:16:49;4.90;;;3.63;;
50267;SDS011;36153;50.960;6.220;2023-04-19T16:19:50;8.00;;;3.63;;
50267;SDS011;36153;50.960;6.220;2023-04-19T16:22:50;5.50;;;3.63;;
50267;SDS011;36153;50.960;6.220;2023-04-19T16:25:50;5.00;;;3.92;;
50267;SDS011;36153;50.960;6.220;2023-04-19T16:28:51;5.57;;;4.07;;
50267;SDS011;36153;50.960;6.220;2023-04-19T16:31:51;7.47;;;3.10;;
50267;SDS011;36153;50.960;6.220;2023-04-19T16:34:52;4.85;;;3.17;;
50267;SDS011;36153;50.960;6.220;2023-04-19T16:37:52;4.43;;;2.60;;
50267;SDS011;36153;50.960;6.220;2023-04-19T16:40:52;4.18;;;2.58;;
50267;SDS011;36153;50.960;6.220;2023-04-19T16:43:53;7.07;;;2.85;;
50267;SDS011;36153;50.960;6.220;2023-04-19T16:46:54;4.82;;;2.20;;
50267;SDS011;36153;50.960;6.220;2023-04-19T16:49:54;3.78;;;3.30;;
50267;SDS011;36153;50.960;6.220;2023-04-19T16:52:55;5.07;;;2.55;;
50267;SDS011;36153;50.960;6.220;2023-04-19T16:55:56;6.13;;;3.20;;
50267;SDS011;36153;50.960;6.220;2023-04-19T16:58:56;4.13;;;2.58;;
50267;SDS011;36153;50.960;6.220;2023-04-19T17:01:56;5.07;;;2.45;;
50267;SDS011;36153;50.960;6.220;2023-04-19T17:04:57;4.32;;;2.80;;
50267;SDS011;36153;50.960;6.220;2023-04-19T17:07:57;3.25;;;2.25;;
50267;SDS011;36153;50.960;6.220;2023-04-19T17:10:58;7.03;;;2.72;;
50267;SDS011;36153;50.960;6.220;2023-04-19T17:13:58;4.05;;;2.40;;
50267;SDS011;36153;50.960;6.220;2023-04-19T17:16:59;6.18;;;3.90;;
50267;SDS011;36153;50.960;6.220;2023-04-19T17:19:59;6.53;;;2.25;;
50267;SDS011;36153;50.960;6.220;2023-04-19T17:23:00;3.97;;;2.30;;
50267;SDS011;36153;50.960;6.220;2023-04-19T17:26:00;6.57;;;2.15;;
50267;SDS011;36153;50.960;6.220;2023-04-19T17:29:01;6.65;;;3.10;;
50267;SDS011;36153;50.960;6.220;2023-04-19T17:32:01;3.88;;;2.55;;
50267;SDS011;36153;50.960;6.220;2023-04-19T17:35:02;4.43;;;2.00;;
50267;SDS011;36153;50.960;6.220;2023-04-19T17:38:03;4.20;;;1.98;;
50267;SDS011;36153;50.960;6.220;2023-04-19T17:41:04;6.07;;;1.85;;
50267;SDS011;36153;50.960;6.220;2023-04-19T17:44:07;3.20;;;2.17;;
50267;SDS011;36153;50.960;6.220;2023-04-19T17:47:07;4.93;;;2.17;;
50267;SDS011;36153;50.960;6.220;2023-04-19T17:50:09;3.55;;;2.42;;
50267;SDS011;36153;50.960;6.220;2023-04-19T17:53:11;4.00;;;2.85;;
50267;SDS011;36153;50.960;6.220;2023-04-19T17:56:11;4.35;;;3.55;;
50267;SDS011;36153;50.960;6.220;2023-04-19T17:59:12;2.65;;;2.35;;
50267;SDS011;36153;50.960;6.220;2023-04-19T18:02:12;4.70;;;2.20;;
50267;SDS011;36153;50.960;6.220;2023-04-19T18:05:12;4.75;;;2.60;;
50267;SDS011;36153;50.960;6.220;2023-04-19T18:08:13;3.33;;;1.70;;
50267;SDS011;36153;50.960;6.220;2023-04-19T18:11:13;5.07;;;2.42;;
50267;SDS011;36153;50.960;6.220;2023-04-19T18:14:17;5.38;;;2.40;;
50267;SDS011;36153;50.960;6.220;2023-04-19T18:17:17;3.20;;;2.22;;